sensor_id;sensor_type;location;lat;lon;timestamp;temperature;humidity
51500;DHT22;39101;53.478;6.158;2022-08-03T00:00:39;18.90;99.90
51500;DHT22;39101;53.478;6.158;2022-08-03T00:03:06;18.80;99.90
51500;DHT22;39101;53.478;6.158;2022-08-03T00:05:32;18.90;99.90
51500;DHT22;39101;53.478;6.158;2022-08-03T00:08:00;18.90;99.90
51500;DHT22;39101;53.478;6.158;2022-08-03T00:10:25;18.80;99.90
51500;DHT22;39101;53.478;6.158;2022-08-03T00:12:52;18.90;99.90
51500;DHT22;39101;53.478;6.158;2022-08-03T00:15:18;18.90;99.90
51500;DHT22;39101;53.478;6.158;2022-08-03T00:17:49;18.90;99.90
51500;DHT22;39101;53.478;6.158;2022-08-03T00:20:15;18.90;99.90
51500;DHT22;39101;53.478;6.158;2022-08-03T00:22:40;18.80;99.90
51500;DHT22;39101;53.478;6.158;2022-08-03T00:25:06;18.90;99.90
51500;DHT22;39101;53.478;6.158;2022-08-03T00:27:33;18.90;99.90
51500;DHT22;39101;53.478;6.158;2022-08-03T00:29:59;18.80;99.90
51500;DHT22;39101;53.478;6.158;2022-08-03T00:32:24;18.80;99.90
51500;DHT22;39101;53.478;6.158;2022-08-03T00:34:50;18.90;99.90
51500;DHT22;39101;53.478;6.158;2022-08-03T00:37:16;18.80;99.90
51500;DHT22;39101;53.478;6.158;2022-08-03T00:39:41;18.90;99.90
51500;DHT22;39101;53.478;6.158;2022-08-03T00:42:10;18.90;99.90
51500;DHT22;39101;53.478;6.158;2022-08-03T00:44:42;18.80;99.90
51500;DHT22;39101;53.478;6.158;2022-08-03T00:47:08;18.80;99.90
51500;DHT22;39101;53.478;6.158;2022-08-03T00:49:36;18.90;99.90
51500;DHT22;39101;53.478;6.158;2022-08-03T00:52:09;18.90;99.90
51500;DHT22;39101;53.478;6.158;2022-08-03T00:54:37;18.80;99.90
51500;DHT22;39101;53.478;6.158;2022-08-03T00:57:05;18.90;99.90
51500;DHT22;39101;53.478;6.158;2022-08-03T00:59:31;18.90;99.90
51500;DHT22;39101;53.478;6.158;2022-08-03T01:01:56;19.00;99.90
51500;DHT22;39101;53.478;6.158;2022-08-03T01:04:24;18.80;99.90
51500;DHT22;39101;53.478;6.158;2022-08-03T01:09:37;18.90;99.90
51500;DHT22;39101;53.478;6.158;2022-08-03T01:12:13;18.90;99.90
51500;DHT22;39101;53.478;6.158;2022-08-03T01:14:59;18.80;99.90
51500;DHT22;39101;53.478;6.158;2022-08-03T01:17:36;18.80;99.90
51500;DHT22;39101;53.478;6.158;2022-08-03T01:20:09;18.90;99.90
51500;DHT22;39101;53.478;6.158;2022-08-03T01:31:22;18.90;99.90
51500;DHT22;39101;53.478;6.158;2022-08-03T01:33:56;19.00;99.90
51500;DHT22;39101;53.478;6.158;2022-08-03T01:36:28;19.00;99.90
51500;DHT22;39101;53.478;6.158;2022-08-03T01:39:00;18.90;99.90
51500;DHT22;39101;53.478;6.158;2022-08-03T01:41:36;18.90;99.90
51500;DHT22;39101;53.478;6.158;2022-08-03T01:44:06;18.90;99.90
51500;DHT22;39101;53.478;6.158;2022-08-03T01:46:34;18.80;99.90
51500;DHT22;39101;53.478;6.158;2022-08-03T01:49:02;18.90;99.90
51500;DHT22;39101;53.478;6.158;2022-08-03T01:51:30;18.80;99.90
51500;DHT22;39101;53.478;6.158;2022-08-03T01:53:59;18.80;99.90
51500;DHT22;39101;53.478;6.158;2022-08-03T01:56:27;18.80;99.90
51500;DHT22;39101;53.478;6.158;2022-08-03T01:58:56;18.80;99.90
51500;DHT22;39101;53.478;6.158;2022-08-03T02:01:26;18.70;99.90
51500;DHT22;39101;53.478;6.158;2022-08-03T02:03:53;18.70;99.90
51500;DHT22;39101;53.478;6.158;2022-08-03T02:06:21;18.70;99.90
51500;DHT22;39101;53.478;6.158;2022-08-03T02:08:50;18.70;99.90
51500;DHT22;39101;53.478;6.158;2022-08-03T02:11:17;18.70;99.90
51500;DHT22;39101;53.478;6.158;2022-08-03T02:13:44;18.60;99.90
51500;DHT22;39101;53.478;6.158;2022-08-03T02:16:12;18.60;99.90
51500;DHT22;39101;53.478;6.158;2022-08-03T02:18:39;18.60;99.90
51500;DHT22;39101;53.478;6.158;2022-08-03T02:21:06;18.50;99.90
51500;DHT22;39101;53.478;6.158;2022-08-03T02:23:35;18.50;99.90
51500;DHT22;39101;53.478;6.158;2022-08-03T02:26:07;18.50;99.90
51500;DHT22;39101;53.478;6.158;2022-08-03T02:28:36;18.40;99.90
51500;DHT22;39101;53.478;6.158;2022-08-03T02:31:08;18.50;99.90
51500;DHT22;39101;53.478;6.158;2022-08-03T02:33:40;18.50;99.90
51500;DHT22;39101;53.478;6.158;2022-08-03T02:36:07;18.50;99.90
51500;DHT22;39101;53.478;6.158;2022-08-03T02:38:37;18.50;99.90
51500;DHT22;39101;53.478;6.158;2022-08-03T02:41:16;18.50;99.90
51500;DHT22;39101;53.478;6.158;2022-08-03T02:43:51;18.50;99.90
51500;DHT22;39101;53.478;6.158;2022-08-03T02:46:19;18.40;99.90
51500;DHT22;39101;53.478;6.158;2022-08-03T02:48:47;18.50;99.90
51500;DHT22;39101;53.478;6.158;2022-08-03T02:51:18;18.40;99.90
51500;DHT22;39101;53.478;6.158;2022-08-03T02:53:45;18.30;99.90
51500;DHT22;39101;53.478;6.158;2022-08-03T02:56:12;18.40;99.90
51500;DHT22;39101;53.478;6.158;2022-08-03T02:58:41;18.40;99.90
51500;DHT22;39101;53.478;6.158;2022-08-03T03:01:08;18.40;99.90
51500;DHT22;39101;53.478;6.158;2022-08-03T03:03:34;18.30;99.90
51500;DHT22;39101;53.478;6.158;2022-08-03T03:06:01;18.30;99.90
51500;DHT22;39101;53.478;6.158;2022-08-03T03:08:27;18.30;99.90
51500;DHT22;39101;53.478;6.158;2022-08-03T03:10:57;18.30;99.90
51500;DHT22;39101;53.478;6.158;2022-08-03T03:13:24;18.40;99.90
51500;DHT22;39101;53.478;6.158;2022-08-03T03:15:52;18.30;99.90
51500;DHT22;39101;53.478;6.158;2022-08-03T03:18:22;18.30;99.90
51500;DHT22;39101;53.478;6.158;2022-08-03T03:20:49;18.30;99.90
51500;DHT22;39101;53.478;6.158;2022-08-03T03:23:16;18.30;99.90
51500;DHT22;39101;53.478;6.158;2022-08-03T03:25:42;18.20;99.90
51500;DHT22;39101;53.478;6.158;2022-08-03T03:28:09;18.20;99.90
51500;DHT22;39101;53.478;6.158;2022-08-03T03:30:35;18.20;99.90
51500;DHT22;39101;53.478;6.158;2022-08-03T03:33:01;18.20;99.90
51500;DHT22;39101;53.478;6.158;2022-08-03T03:35:27;18.20;99.90
51500;DHT22;39101;53.478;6.158;2022-08-03T03:37:53;18.10;99.90
51500;DHT22;39101;53.478;6.158;2022-08-03T03:40:20;18.20;99.90
51500;DHT22;39101;53.478;6.158;2022-08-03T03:42:45;18.10;99.90
51500;DHT22;39101;53.478;6.158;2022-08-03T03:45:12;18.30;99.90
51500;DHT22;39101;53.478;6.158;2022-08-03T03:47:38;18.20;99.90
51500;DHT22;39101;53.478;6.158;2022-08-03T03:50:04;18.20;99.90
51500;DHT22;39101;53.478;6.158;2022-08-03T03:52:32;18.30;99.90
51500;DHT22;39101;53.478;6.158;2022-08-03T03:54:58;18.30;99.90
51500;DHT22;39101;53.478;6.158;2022-08-03T03:57:24;18.20;99.90
51500;DHT22;39101;53.478;6.158;2022-08-03T03:59:50;18.30;99.90
51500;DHT22;39101;53.478;6.158;2022-08-03T04:02:16;18.30;99.90
51500;DHT22;39101;53.478;6.158;2022-08-03T04:04:42;18.20;99.90
51500;DHT22;39101;53.478;6.158;2022-08-03T04:07:26;18.30;99.90
51500;DHT22;39101;53.478;6.158;2022-08-03T04:10:21;18.30;99.90
51500;DHT22;39101;53.478;6.158;2022-08-03T04:13:08;18.30;99.90
51500;DHT22;39101;53.478;6.158;2022-08-03T04:15:37;18.30;99.90
51500;DHT22;39101;53.478;6.158;2022-08-03T04:18:07;18.30;99.90
51500;DHT22;39101;53.478;6.158;2022-08-03T04:20:35;18.30;99.90
51500;DHT22;39101;53.478;6.158;2022-08-03T04:23:03;18.30;99.90
51500;DHT22;39101;53.478;6.158;2022-08-03T04:25:32;18.30;99.90
51500;DHT22;39101;53.478;6.158;2022-08-03T04:28:00;18.30;99.90
51500;DHT22;39101;53.478;6.158;2022-08-03T04:30:27;18.30;99.90
51500;DHT22;39101;53.478;6.158;2022-08-03T04:32:59;18.30;99.90
51500;DHT22;39101;53.478;6.158;2022-08-03T04:35:29;18.50;99.90
51500;DHT22;39101;53.478;6.158;2022-08-03T04:38:02;18.40;99.90
51500;DHT22;39101;53.478;6.158;2022-08-03T04:40:45;18.40;99.90
51500;DHT22;39101;53.478;6.158;2022-08-03T04:43:14;18.40;99.90
51500;DHT22;39101;53.478;6.158;2022-08-03T04:45:42;18.50;99.90
51500;DHT22;39101;53.478;6.158;2022-08-03T04:48:08;18.40;99.90
51500;DHT22;39101;53.478;6.158;2022-08-03T04:50:36;18.50;99.90
51500;DHT22;39101;53.478;6.158;2022-08-03T04:53:02;18.50;99.90
51500;DHT22;39101;53.478;6.158;2022-08-03T04:55:32;18.60;99.90
51500;DHT22;39101;53.478;6.158;2022-08-03T04:58:00;18.60;99.90
51500;DHT22;39101;53.478;6.158;2022-08-03T05:00:27;18.60;99.90
51500;DHT22;39101;53.478;6.158;2022-08-03T05:02:55;18.70;99.90
51500;DHT22;39101;53.478;6.158;2022-08-03T05:05:21;18.70;99.90
51500;DHT22;39101;53.478;6.158;2022-08-03T05:07:50;18.80;99.90
51500;DHT22;39101;53.478;6.158;2022-08-03T05:10:17;18.70;99.90
51500;DHT22;39101;53.478;6.158;2022-08-03T05:12:44;18.80;99.90
51500;DHT22;39101;53.478;6.158;2022-08-03T05:15:10;18.80;99.90
51500;DHT22;39101;53.478;6.158;2022-08-03T05:17:36;18.80;99.90
51500;DHT22;39101;53.478;6.158;2022-08-03T05:20:03;18.90;99.90
51500;DHT22;39101;53.478;6.158;2022-08-03T05:22:29;18.80;99.90
51500;DHT22;39101;53.478;6.158;2022-08-03T05:24:55;18.90;99.90
51500;DHT22;39101;53.478;6.158;2022-08-03T05:27:20;19.00;99.90
51500;DHT22;39101;53.478;6.158;2022-08-03T05:29:49;19.00;99.90
51500;DHT22;39101;53.478;6.158;2022-08-03T05:32:18;19.10;99.90
51500;DHT22;39101;53.478;6.158;2022-08-03T05:34:44;19.00;99.90
51500;DHT22;39101;53.478;6.158;2022-08-03T05:37:09;19.20;99.90
51500;DHT22;39101;53.478;6.158;2022-08-03T05:39:42;19.10;99.90
51500;DHT22;39101;53.478;6.158;2022-08-03T05:42:07;19.20;99.90
51500;DHT22;39101;53.478;6.158;2022-08-03T05:44:33;19.30;99.90
51500;DHT22;39101;53.478;6.158;2022-08-03T05:46:59;19.30;99.90
51500;DHT22;39101;53.478;6.158;2022-08-03T05:49:24;19.30;99.90
51500;DHT22;39101;53.478;6.158;2022-08-03T05:51:50;19.30;99.90
51500;DHT22;39101;53.478;6.158;2022-08-03T05:54:16;19.40;99.90
51500;DHT22;39101;53.478;6.158;2022-08-03T05:56:41;19.40;99.90
51500;DHT22;39101;53.478;6.158;2022-08-03T05:59:07;19.80;99.90
51500;DHT22;39101;53.478;6.158;2022-08-03T06:01:33;19.60;99.90
51500;DHT22;39101;53.478;6.158;2022-08-03T06:03:58;19.60;99.90
51500;DHT22;39101;53.478;6.158;2022-08-03T06:06:24;19.70;99.90
51500;DHT22;39101;53.478;6.158;2022-08-03T06:08:50;19.70;99.90
51500;DHT22;39101;53.478;6.158;2022-08-03T06:11:16;19.80;99.90
51500;DHT22;39101;53.478;6.158;2022-08-03T06:13:42;19.90;99.90
51500;DHT22;39101;53.478;6.158;2022-08-03T06:16:08;19.90;99.90
51500;DHT22;39101;53.478;6.158;2022-08-03T06:18:34;20.00;99.90
51500;DHT22;39101;53.478;6.158;2022-08-03T06:21:00;19.90;99.90
51500;DHT22;39101;53.478;6.158;2022-08-03T06:23:26;20.00;99.90
51500;DHT22;39101;53.478;6.158;2022-08-03T06:25:52;20.10;99.90
51500;DHT22;39101;53.478;6.158;2022-08-03T06:28:17;20.10;99.90
51500;DHT22;39101;53.478;6.158;2022-08-03T06:30:44;20.20;99.90
51500;DHT22;39101;53.478;6.158;2022-08-03T06:33:09;20.20;99.90
51500;DHT22;39101;53.478;6.158;2022-08-03T06:35:36;20.30;99.90
51500;DHT22;39101;53.478;6.158;2022-08-03T06:38:02;20.20;99.90
51500;DHT22;39101;53.478;6.158;2022-08-03T06:40:28;20.30;99.90
51500;DHT22;39101;53.478;6.158;2022-08-03T06:43:00;20.50;99.90
51500;DHT22;39101;53.478;6.158;2022-08-03T06:45:28;20.40;99.90
51500;DHT22;39101;53.478;6.158;2022-08-03T06:48:05;20.50;99.90
51500;DHT22;39101;53.478;6.158;2022-08-03T06:53:45;20.60;99.90
51500;DHT22;39101;53.478;6.158;2022-08-03T06:56:10;20.70;99.90
51500;DHT22;39101;53.478;6.158;2022-08-03T06:58:36;20.70;99.90
51500;DHT22;39101;53.478;6.158;2022-08-03T07:01:02;20.80;99.90
51500;DHT22;39101;53.478;6.158;2022-08-03T07:03:27;20.80;99.90
51500;DHT22;39101;53.478;6.158;2022-08-03T07:05:54;20.80;99.90
51500;DHT22;39101;53.478;6.158;2022-08-03T07:08:21;21.00;99.90
51500;DHT22;39101;53.478;6.158;2022-08-03T07:10:49;21.00;99.90
51500;DHT22;39101;53.478;6.158;2022-08-03T07:13:15;21.00;99.90
51500;DHT22;39101;53.478;6.158;2022-08-03T07:15:40;21.10;99.90
51500;DHT22;39101;53.478;6.158;2022-08-03T07:18:09;21.20;99.90
51500;DHT22;39101;53.478;6.158;2022-08-03T07:20:35;21.30;99.90
51500;DHT22;39101;53.478;6.158;2022-08-03T07:23:02;21.30;99.90
51500;DHT22;39101;53.478;6.158;2022-08-03T07:25:28;21.40;99.90
51500;DHT22;39101;53.478;6.158;2022-08-03T07:27:55;21.30;99.90
51500;DHT22;39101;53.478;6.158;2022-08-03T07:30:22;21.30;99.90
51500;DHT22;39101;53.478;6.158;2022-08-03T07:32:48;21.40;99.90
51500;DHT22;39101;53.478;6.158;2022-08-03T07:35:14;21.60;99.90
51500;DHT22;39101;53.478;6.158;2022-08-03T07:37:40;21.60;99.90
51500;DHT22;39101;53.478;6.158;2022-08-03T07:40:06;21.60;99.90
51500;DHT22;39101;53.478;6.158;2022-08-03T07:42:32;21.70;99.90
51500;DHT22;39101;53.478;6.158;2022-08-03T07:44:58;21.70;99.90
51500;DHT22;39101;53.478;6.158;2022-08-03T07:47:27;21.80;99.90
51500;DHT22;39101;53.478;6.158;2022-08-03T07:49:54;21.80;99.90
51500;DHT22;39101;53.478;6.158;2022-08-03T07:52:20;21.90;99.90
51500;DHT22;39101;53.478;6.158;2022-08-03T07:55:07;22.00;99.90
51500;DHT22;39101;53.478;6.158;2022-08-03T07:57:34;22.00;99.90
51500;DHT22;39101;53.478;6.158;2022-08-03T08:00:00;22.00;99.90
51500;DHT22;39101;53.478;6.158;2022-08-03T08:02:26;22.10;99.90
51500;DHT22;39101;53.478;6.158;2022-08-03T08:04:52;22.20;99.90
51500;DHT22;39101;53.478;6.158;2022-08-03T08:07:17;22.20;99.90
51500;DHT22;39101;53.478;6.158;2022-08-03T08:09:43;22.30;99.90
51500;DHT22;39101;53.478;6.158;2022-08-03T08:12:09;22.30;99.90
51500;DHT22;39101;53.478;6.158;2022-08-03T08:14:37;22.30;99.90
51500;DHT22;39101;53.478;6.158;2022-08-03T08:17:03;22.40;99.90
51500;DHT22;39101;53.478;6.158;2022-08-03T08:19:54;22.40;99.90
51500;DHT22;39101;53.478;6.158;2022-08-03T08:22:19;22.50;99.90
51500;DHT22;39101;53.478;6.158;2022-08-03T08:24:45;22.40;99.90
51500;DHT22;39101;53.478;6.158;2022-08-03T08:27:14;22.50;99.90
51500;DHT22;39101;53.478;6.158;2022-08-03T08:29:39;22.50;99.90
51500;DHT22;39101;53.478;6.158;2022-08-03T08:32:05;22.50;99.90
51500;DHT22;39101;53.478;6.158;2022-08-03T08:34:31;22.60;99.90
51500;DHT22;39101;53.478;6.158;2022-08-03T08:36:57;22.70;99.90
51500;DHT22;39101;53.478;6.158;2022-08-03T08:45:48;22.70;99.90
51500;DHT22;39101;53.478;6.158;2022-08-03T08:48:14;22.80;99.90
51500;DHT22;39101;53.478;6.158;2022-08-03T08:50:43;22.70;99.90
51500;DHT22;39101;53.478;6.158;2022-08-03T08:53:11;22.80;99.90
51500;DHT22;39101;53.478;6.158;2022-08-03T08:55:38;22.80;99.90
51500;DHT22;39101;53.478;6.158;2022-08-03T08:58:05;22.90;99.90
51500;DHT22;39101;53.478;6.158;2022-08-03T09:00:32;22.90;99.90
51500;DHT22;39101;53.478;6.158;2022-08-03T09:02:59;23.00;99.90
51500;DHT22;39101;53.478;6.158;2022-08-03T09:05:25;23.00;99.90
51500;DHT22;39101;53.478;6.158;2022-08-03T09:07:51;23.10;99.90
51500;DHT22;39101;53.478;6.158;2022-08-03T09:10:21;23.10;99.90
51500;DHT22;39101;53.478;6.158;2022-08-03T09:12:50;23.10;99.90
51500;DHT22;39101;53.478;6.158;2022-08-03T09:17:46;23.20;99.90
51500;DHT22;39101;53.478;6.158;2022-08-03T09:20:12;23.30;99.90
51500;DHT22;39101;53.478;6.158;2022-08-03T09:23:04;23.30;99.90
51500;DHT22;39101;53.478;6.158;2022-08-03T09:25:41;23.30;99.90
51500;DHT22;39101;53.478;6.158;2022-08-03T09:28:12;23.40;99.90
51500;DHT22;39101;53.478;6.158;2022-08-03T09:30:41;23.40;99.90
51500;DHT22;39101;53.478;6.158;2022-08-03T09:33:12;23.60;99.90
51500;DHT22;39101;53.478;6.158;2022-08-03T09:35:46;23.60;99.90
51500;DHT22;39101;53.478;6.158;2022-08-03T09:40:39;23.60;99.90
51500;DHT22;39101;53.478;6.158;2022-08-03T09:43:06;23.70;99.90
51500;DHT22;39101;53.478;6.158;2022-08-03T09:45:38;23.60;99.90
51500;DHT22;39101;53.478;6.158;2022-08-03T09:48:23;23.70;99.90
51500;DHT22;39101;53.478;6.158;2022-08-03T09:50:51;23.80;99.90
51500;DHT22;39101;53.478;6.158;2022-08-03T09:53:24;23.70;99.90
51500;DHT22;39101;53.478;6.158;2022-08-03T09:55:57;23.70;99.90
51500;DHT22;39101;53.478;6.158;2022-08-03T09:58:28;23.80;99.90
51500;DHT22;39101;53.478;6.158;2022-08-03T10:01:02;23.80;99.90
51500;DHT22;39101;53.478;6.158;2022-08-03T10:03:33;23.80;99.90
51500;DHT22;39101;53.478;6.158;2022-08-03T10:06:20;23.80;99.90
51500;DHT22;39101;53.478;6.158;2022-08-03T10:09:11;23.90;99.90
51500;DHT22;39101;53.478;6.158;2022-08-03T10:11:37;23.90;99.90
51500;DHT22;39101;53.478;6.158;2022-08-03T10:14:04;23.90;99.90
51500;DHT22;39101;53.478;6.158;2022-08-03T10:16:36;23.90;99.90
51500;DHT22;39101;53.478;6.158;2022-08-03T10:19:04;24.00;99.90
51500;DHT22;39101;53.478;6.158;2022-08-03T10:22:34;23.90;99.90
51500;DHT22;39101;53.478;6.158;2022-08-03T10:25:10;24.00;99.90
51500;DHT22;39101;53.478;6.158;2022-08-03T10:27:41;23.90;99.90
51500;DHT22;39101;53.478;6.158;2022-08-03T10:30:15;24.00;99.90
51500;DHT22;39101;53.478;6.158;2022-08-03T10:35:26;23.90;99.90
51500;DHT22;39101;53.478;6.158;2022-08-03T10:38:04;23.90;99.90
51500;DHT22;39101;53.478;6.158;2022-08-03T10:40:33;23.90;99.90
51500;DHT22;39101;53.478;6.158;2022-08-03T10:43:06;23.90;99.90
51500;DHT22;39101;53.478;6.158;2022-08-03T10:45:40;23.90;99.90
51500;DHT22;39101;53.478;6.158;2022-08-03T10:48:07;23.90;99.90
51500;DHT22;39101;53.478;6.158;2022-08-03T10:50:35;23.90;99.90
51500;DHT22;39101;53.478;6.158;2022-08-03T10:53:04;23.90;99.90
51500;DHT22;39101;53.478;6.158;2022-08-03T10:55:46;23.80;99.90
51500;DHT22;39101;53.478;6.158;2022-08-03T11:01:06;23.80;99.90
51500;DHT22;39101;53.478;6.158;2022-08-03T11:03:33;23.70;99.90
51500;DHT22;39101;53.478;6.158;2022-08-03T11:06:25;23.80;99.90
51500;DHT22;39101;53.478;6.158;2022-08-03T11:11:41;23.80;99.90
51500;DHT22;39101;53.478;6.158;2022-08-03T11:14:13;23.70;99.90
51500;DHT22;39101;53.478;6.158;2022-08-03T11:16:45;23.60;99.90
51500;DHT22;39101;53.478;6.158;2022-08-03T11:19:14;23.40;99.90
51500;DHT22;39101;53.478;6.158;2022-08-03T11:27:15;23.10;99.90
51500;DHT22;39101;53.478;6.158;2022-08-03T11:30:09;23.00;99.90
51500;DHT22;39101;53.478;6.158;2022-08-03T11:35:18;22.90;99.90
51500;DHT22;39101;53.478;6.158;2022-08-03T11:40:52;22.90;99.90
51500;DHT22;39101;53.478;6.158;2022-08-03T11:46:10;22.60;99.90
51500;DHT22;39101;53.478;6.158;2022-08-03T11:48:44;22.60;99.90
51500;DHT22;39101;53.478;6.158;2022-08-03T11:53:58;22.50;99.90
51500;DHT22;39101;53.478;6.158;2022-08-03T11:56:24;22.50;99.90
51500;DHT22;39101;53.478;6.158;2022-08-03T11:58:52;22.20;99.90
51500;DHT22;39101;53.478;6.158;2022-08-03T12:01:19;22.20;99.90
51500;DHT22;39101;53.478;6.158;2022-08-03T12:03:47;22.30;99.90
51500;DHT22;39101;53.478;6.158;2022-08-03T12:06:19;22.20;99.90
51500;DHT22;39101;53.478;6.158;2022-08-03T12:08:45;22.20;99.90
51500;DHT22;39101;53.478;6.158;2022-08-03T12:11:14;22.30;99.90
51500;DHT22;39101;53.478;6.158;2022-08-03T12:13:48;22.20;99.90
51500;DHT22;39101;53.478;6.158;2022-08-03T12:16:22;22.20;99.90
51500;DHT22;39101;53.478;6.158;2022-08-03T12:19:02;22.10;99.90
51500;DHT22;39101;53.478;6.158;2022-08-03T12:21:30;22.10;99.90
51500;DHT22;39101;53.478;6.158;2022-08-03T12:24:01;22.20;99.90
51500;DHT22;39101;53.478;6.158;2022-08-03T12:26:28;22.10;99.90
51500;DHT22;39101;53.478;6.158;2022-08-03T12:28:54;22.20;99.90
51500;DHT22;39101;53.478;6.158;2022-08-03T12:31:20;22.30;99.90
51500;DHT22;39101;53.478;6.158;2022-08-03T12:33:57;22.30;99.90
51500;DHT22;39101;53.478;6.158;2022-08-03T12:36:23;22.40;99.90
51500;DHT22;39101;53.478;6.158;2022-08-03T12:39:07;22.20;99.90
51500;DHT22;39101;53.478;6.158;2022-08-03T12:41:38;22.40;99.90
51500;DHT22;39101;53.478;6.158;2022-08-03T12:44:06;22.40;99.90
51500;DHT22;39101;53.478;6.158;2022-08-03T12:46:33;22.40;99.90
51500;DHT22;39101;53.478;6.158;2022-08-03T12:51:27;22.30;99.90
51500;DHT22;39101;53.478;6.158;2022-08-03T12:53:54;22.30;99.90
51500;DHT22;39101;53.478;6.158;2022-08-03T12:56:20;22.50;99.90
51500;DHT22;39101;53.478;6.158;2022-08-03T12:58:46;22.40;99.90
51500;DHT22;39101;53.478;6.158;2022-08-03T13:01:13;22.40;99.90
51500;DHT22;39101;53.478;6.158;2022-08-03T13:03:45;22.40;99.90
51500;DHT22;39101;53.478;6.158;2022-08-03T13:06:31;22.40;99.90
51500;DHT22;39101;53.478;6.158;2022-08-03T13:09:06;22.30;99.90
51500;DHT22;39101;53.478;6.158;2022-08-03T13:12:11;22.40;99.90
51500;DHT22;39101;53.478;6.158;2022-08-03T13:14:38;22.40;99.90
51500;DHT22;39101;53.478;6.158;2022-08-03T13:17:04;22.40;99.90
51500;DHT22;39101;53.478;6.158;2022-08-03T13:19:35;22.40;99.90
51500;DHT22;39101;53.478;6.158;2022-08-03T13:22:13;22.30;99.90
51500;DHT22;39101;53.478;6.158;2022-08-03T13:24:40;22.30;99.90
51500;DHT22;39101;53.478;6.158;2022-08-03T13:27:06;22.40;99.90
51500;DHT22;39101;53.478;6.158;2022-08-03T13:29:33;22.40;99.90
51500;DHT22;39101;53.478;6.158;2022-08-03T13:32:02;22.30;99.90
51500;DHT22;39101;53.478;6.158;2022-08-03T13:34:28;22.30;99.90
51500;DHT22;39101;53.478;6.158;2022-08-03T13:36:54;22.30;99.90
51500;DHT22;39101;53.478;6.158;2022-08-03T13:39:20;22.30;99.90
51500;DHT22;39101;53.478;6.158;2022-08-03T13:41:46;22.40;99.90
51500;DHT22;39101;53.478;6.158;2022-08-03T13:44:12;22.40;99.90
51500;DHT22;39101;53.478;6.158;2022-08-03T13:46:40;22.40;99.90
51500;DHT22;39101;53.478;6.158;2022-08-03T13:49:06;22.30;99.90
51500;DHT22;39101;53.478;6.158;2022-08-03T13:51:32;22.30;99.90
51500;DHT22;39101;53.478;6.158;2022-08-03T13:53:58;22.40;99.90
51500;DHT22;39101;53.478;6.158;2022-08-03T13:56:44;22.40;99.90
51500;DHT22;39101;53.478;6.158;2022-08-03T13:59:17;22.40;99.90
51500;DHT22;39101;53.478;6.158;2022-08-03T14:01:45;22.30;99.90
51500;DHT22;39101;53.478;6.158;2022-08-03T14:04:11;22.30;99.90
51500;DHT22;39101;53.478;6.158;2022-08-03T14:06:38;22.40;99.90
51500;DHT22;39101;53.478;6.158;2022-08-03T14:09:36;22.40;99.90
51500;DHT22;39101;53.478;6.158;2022-08-03T14:12:02;22.20;99.90
51500;DHT22;39101;53.478;6.158;2022-08-03T14:14:28;22.30;99.90
51500;DHT22;39101;53.478;6.158;2022-08-03T14:16:53;22.30;99.90
51500;DHT22;39101;53.478;6.158;2022-08-03T14:19:19;22.40;99.90
51500;DHT22;39101;53.478;6.158;2022-08-03T14:21:45;22.30;99.90
51500;DHT22;39101;53.478;6.158;2022-08-03T14:24:14;22.50;99.90
51500;DHT22;39101;53.478;6.158;2022-08-03T14:26:39;22.40;99.90
51500;DHT22;39101;53.478;6.158;2022-08-03T14:29:05;22.40;99.90
51500;DHT22;39101;53.478;6.158;2022-08-03T14:34:54;22.50;99.90
51500;DHT22;39101;53.478;6.158;2022-08-03T14:37:19;22.60;99.90
51500;DHT22;39101;53.478;6.158;2022-08-03T14:39:45;22.40;99.90
51500;DHT22;39101;53.478;6.158;2022-08-03T14:42:12;22.40;99.90
51500;DHT22;39101;53.478;6.158;2022-08-03T14:44:56;22.30;99.90
51500;DHT22;39101;53.478;6.158;2022-08-03T14:47:22;22.50;99.90
51500;DHT22;39101;53.478;6.158;2022-08-03T14:49:49;22.60;99.90
51500;DHT22;39101;53.478;6.158;2022-08-03T14:52:16;22.70;99.90
51500;DHT22;39101;53.478;6.158;2022-08-03T14:54:42;22.60;99.90
51500;DHT22;39101;53.478;6.158;2022-08-03T15:00:51;22.60;99.90
51500;DHT22;39101;53.478;6.158;2022-08-03T15:03:20;22.80;99.90
51500;DHT22;39101;53.478;6.158;2022-08-03T15:05:49;22.70;99.90
51500;DHT22;39101;53.478;6.158;2022-08-03T15:08:15;22.70;99.90
51500;DHT22;39101;53.478;6.158;2022-08-03T15:10:41;22.80;99.90
51500;DHT22;39101;53.478;6.158;2022-08-03T15:13:06;22.60;99.90
51500;DHT22;39101;53.478;6.158;2022-08-03T15:15:32;22.60;99.90
51500;DHT22;39101;53.478;6.158;2022-08-03T15:17:58;22.70;99.90
51500;DHT22;39101;53.478;6.158;2022-08-03T15:20:25;22.70;99.90
51500;DHT22;39101;53.478;6.158;2022-08-03T15:22:50;22.60;99.90
51500;DHT22;39101;53.478;6.158;2022-08-03T15:25:16;22.70;99.90
51500;DHT22;39101;53.478;6.158;2022-08-03T15:27:43;22.70;99.90
51500;DHT22;39101;53.478;6.158;2022-08-03T15:30:10;22.90;99.90
51500;DHT22;39101;53.478;6.158;2022-08-03T15:32:36;22.90;99.90
51500;DHT22;39101;53.478;6.158;2022-08-03T15:35:02;22.80;99.90
51500;DHT22;39101;53.478;6.158;2022-08-03T15:37:27;22.90;99.90
51500;DHT22;39101;53.478;6.158;2022-08-03T15:39:54;22.90;99.90
51500;DHT22;39101;53.478;6.158;2022-08-03T15:42:20;22.90;99.90
51500;DHT22;39101;53.478;6.158;2022-08-03T15:48:58;23.00;99.90
51500;DHT22;39101;53.478;6.158;2022-08-03T15:51:24;23.00;99.90
51500;DHT22;39101;53.478;6.158;2022-08-03T15:53:49;23.00;99.90
51500;DHT22;39101;53.478;6.158;2022-08-03T15:56:15;23.00;99.90
51500;DHT22;39101;53.478;6.158;2022-08-03T15:58:41;23.00;99.90
51500;DHT22;39101;53.478;6.158;2022-08-03T16:01:07;23.10;99.90
51500;DHT22;39101;53.478;6.158;2022-08-03T16:03:32;22.90;99.90
51500;DHT22;39101;53.478;6.158;2022-08-03T16:06:06;23.00;99.90
51500;DHT22;39101;53.478;6.158;2022-08-03T16:08:32;23.00;99.90
51500;DHT22;39101;53.478;6.158;2022-08-03T16:11:00;22.90;99.90
51500;DHT22;39101;53.478;6.158;2022-08-03T16:13:26;22.90;99.90
51500;DHT22;39101;53.478;6.158;2022-08-03T16:15:52;22.90;99.90
51500;DHT22;39101;53.478;6.158;2022-08-03T16:18:19;22.90;99.90
51500;DHT22;39101;53.478;6.158;2022-08-03T16:20:45;23.00;99.90
51500;DHT22;39101;53.478;6.158;2022-08-03T16:23:13;23.10;99.90
51500;DHT22;39101;53.478;6.158;2022-08-03T16:25:41;23.00;99.90
51500;DHT22;39101;53.478;6.158;2022-08-03T16:28:07;23.00;99.90
51500;DHT22;39101;53.478;6.158;2022-08-03T16:30:33;22.90;99.90
51500;DHT22;39101;53.478;6.158;2022-08-03T16:32:59;22.90;99.90
51500;DHT22;39101;53.478;6.158;2022-08-03T16:35:25;22.80;99.90
51500;DHT22;39101;53.478;6.158;2022-08-03T16:37:51;23.00;99.90
51500;DHT22;39101;53.478;6.158;2022-08-03T16:40:17;23.00;99.90
51500;DHT22;39101;53.478;6.158;2022-08-03T16:42:44;23.00;99.90
51500;DHT22;39101;53.478;6.158;2022-08-03T16:45:10;23.10;99.90